sensor_id;sensor_type;location;lat;lon;timestamp;temperature;humidity
76759;DHT22;65701;45.588;5.186;2023-02-11T00:01:12;0.80;69.51
76759;DHT22;65701;45.588;5.186;2023-02-11T00:03:40;0.76;69.47
76759;DHT22;65701;45.588;5.186;2023-02-11T00:06:07;0.72;69.40
76759;DHT22;65701;45.588;5.186;2023-02-11T00:08:37;0.70;69.40
76759;DHT22;65701;45.588;5.186;2023-02-11T00:11:03;0.68;69.43
76759;DHT22;65701;45.588;5.186;2023-02-11T00:13:28;0.66;69.50
76759;DHT22;65701;45.588;5.186;2023-02-11T00:15:54;0.64;69.46
76759;DHT22;65701;45.588;5.186;2023-02-11T00:18:20;0.64;69.51
76759;DHT22;65701;45.588;5.186;2023-02-11T00:20:45;0.64;69.50
76759;DHT22;65701;45.588;5.186;2023-02-11T00:23:11;0.64;69.74
76759;DHT22;65701;45.588;5.186;2023-02-11T00:25:44;0.61;69.98
76759;DHT22;65701;45.588;5.186;2023-02-11T00:28:10;0.61;69.90
76759;DHT22;65701;45.588;5.186;2023-02-11T00:30:36;0.59;69.89
76759;DHT22;65701;45.588;5.186;2023-02-11T00:33:01;0.61;69.88
76759;DHT22;65701;45.588;5.186;2023-02-11T00:35:28;0.59;69.90
76759;DHT22;65701;45.588;5.186;2023-02-11T00:37:54;0.62;69.93
76759;DHT22;65701;45.588;5.186;2023-02-11T00:40:20;0.64;70.18
76759;DHT22;65701;45.588;5.186;2023-02-11T00:42:46;0.62;70.19
76759;DHT22;65701;45.588;5.186;2023-02-11T00:45:12;0.61;70.05
76759;DHT22;65701;45.588;5.186;2023-02-11T00:47:37;0.61;69.99
76759;DHT22;65701;45.588;5.186;2023-02-11T00:50:05;0.55;69.86
76759;DHT22;65701;45.588;5.186;2023-02-11T00:52:31;0.52;69.86
76759;DHT22;65701;45.588;5.186;2023-02-11T00:54:57;0.54;69.83
76759;DHT22;65701;45.588;5.186;2023-02-11T00:57:23;0.49;69.86
76759;DHT22;65701;45.588;5.186;2023-02-11T00:59:48;0.47;69.88
76759;DHT22;65701;45.588;5.186;2023-02-11T01:02:14;0.44;69.81
76759;DHT22;65701;45.588;5.186;2023-02-11T01:04:40;0.41;69.74
76759;DHT22;65701;45.588;5.186;2023-02-11T01:07:06;0.38;69.85
76759;DHT22;65701;45.588;5.186;2023-02-11T01:09:31;0.38;69.94
76759;DHT22;65701;45.588;5.186;2023-02-11T01:11:57;0.36;69.84
76759;DHT22;65701;45.588;5.186;2023-02-11T01:14:22;0.32;69.85
76759;DHT22;65701;45.588;5.186;2023-02-11T01:16:48;0.34;69.77
76759;DHT22;65701;45.588;5.186;2023-02-11T01:19:13;0.32;69.82
76759;DHT22;65701;45.588;5.186;2023-02-11T01:21:39;0.32;70.04
76759;DHT22;65701;45.588;5.186;2023-02-11T01:24:04;0.30;70.17
76759;DHT22;65701;45.588;5.186;2023-02-11T01:26:30;0.28;70.18
76759;DHT22;65701;45.588;5.186;2023-02-11T01:28:55;0.22;70.26
76759;DHT22;65701;45.588;5.186;2023-02-11T01:31:21;0.25;70.24
76759;DHT22;65701;45.588;5.186;2023-02-11T01:33:46;0.24;70.24
76759;DHT22;65701;45.588;5.186;2023-02-11T01:36:12;0.21;70.23
76759;DHT22;65701;45.588;5.186;2023-02-11T01:38:37;0.20;70.36
76759;DHT22;65701;45.588;5.186;2023-02-11T01:41:08;0.17;70.45
76759;DHT22;65701;45.588;5.186;2023-02-11T01:43:36;0.15;70.61
76759;DHT22;65701;45.588;5.186;2023-02-11T01:46:23;0.13;70.63
76759;DHT22;65701;45.588;5.186;2023-02-11T01:49:05;0.15;70.62
76759;DHT22;65701;45.588;5.186;2023-02-11T01:55:01;0.14;70.64
76759;DHT22;65701;45.588;5.186;2023-02-11T01:57:49;0.07;70.83
76759;DHT22;65701;45.588;5.186;2023-02-11T02:00:26;0.02;71.23
76759;DHT22;65701;45.588;5.186;2023-02-11T02:03:13;-0.07;71.25
76759;DHT22;65701;45.588;5.186;2023-02-11T02:06:06;-0.06;71.09
76759;DHT22;65701;45.588;5.186;2023-02-11T02:08:49;-0.06;70.97
76759;DHT22;65701;45.588;5.186;2023-02-11T02:11:17;-0.07;71.02
76759;DHT22;65701;45.588;5.186;2023-02-11T02:13:43;-0.08;71.17
76759;DHT22;65701;45.588;5.186;2023-02-11T02:16:17;-0.15;71.58
76759;DHT22;65701;45.588;5.186;2023-02-11T02:29:59;-0.11;71.17
76759;DHT22;65701;45.588;5.186;2023-02-11T02:32:50;-0.08;71.02
76759;DHT22;65701;45.588;5.186;2023-02-11T02:35:43;-0.07;70.98
76759;DHT22;65701;45.588;5.186;2023-02-11T02:38:21;-0.07;70.94
76759;DHT22;65701;45.588;5.186;2023-02-11T02:40:58;-0.04;70.87
76759;DHT22;65701;45.588;5.186;2023-02-11T02:43:26;-0.08;70.75
76759;DHT22;65701;45.588;5.186;2023-02-11T02:45:52;-0.07;70.67
76759;DHT22;65701;45.588;5.186;2023-02-11T02:48:32;-0.10;70.68
76759;DHT22;65701;45.588;5.186;2023-02-11T03:02:24;-0.08;70.57
76759;DHT22;65701;45.588;5.186;2023-02-11T03:05:11;-0.13;70.57
76759;DHT22;65701;45.588;5.186;2023-02-11T03:07:44;-0.15;70.53
76759;DHT22;65701;45.588;5.186;2023-02-11T03:10:16;-0.19;70.61
76759;DHT22;65701;45.588;5.186;2023-02-11T03:12:45;-0.21;70.60
76759;DHT22;65701;45.588;5.186;2023-02-11T03:15:12;-0.21;70.61
76759;DHT22;65701;45.588;5.186;2023-02-11T03:17:40;-0.22;70.54
76759;DHT22;65701;45.588;5.186;2023-02-11T03:20:10;-0.25;70.44
76759;DHT22;65701;45.588;5.186;2023-02-11T03:22:47;-0.26;70.53
76759;DHT22;65701;45.588;5.186;2023-02-11T03:25:13;-0.28;70.58
76759;DHT22;65701;45.588;5.186;2023-02-11T03:27:58;-0.31;70.59
76759;DHT22;65701;45.588;5.186;2023-02-11T03:30:31;-0.29;70.55
76759;DHT22;65701;45.588;5.186;2023-02-11T03:33:07;-0.29;70.55
76759;DHT22;65701;45.588;5.186;2023-02-11T03:36:04;-0.32;70.52
76759;DHT22;65701;45.588;5.186;2023-02-11T03:38:35;-0.32;70.54
76759;DHT22;65701;45.588;5.186;2023-02-11T03:41:02;-0.31;70.55
76759;DHT22;65701;45.588;5.186;2023-02-11T03:43:35;-0.32;70.57
76759;DHT22;65701;45.588;5.186;2023-02-11T03:46:04;-0.34;70.61
76759;DHT22;65701;45.588;5.186;2023-02-11T03:48:33;-0.34;70.67
76759;DHT22;65701;45.588;5.186;2023-02-11T03:51:02;-0.34;70.64
76759;DHT22;65701;45.588;5.186;2023-02-11T03:53:29;-0.34;70.63
76759;DHT22;65701;45.588;5.186;2023-02-11T03:55:58;-0.34;70.65
76759;DHT22;65701;45.588;5.186;2023-02-11T03:58:26;-0.38;70.66
76759;DHT22;65701;45.588;5.186;2023-02-11T04:00:51;-0.35;70.86
76759;DHT22;65701;45.588;5.186;2023-02-11T04:03:17;-0.41;70.89
76759;DHT22;65701;45.588;5.186;2023-02-11T04:05:43;-0.39;70.90
76759;DHT22;65701;45.588;5.186;2023-02-11T04:08:09;-0.41;70.93
76759;DHT22;65701;45.588;5.186;2023-02-11T04:10:34;-0.44;70.92
76759;DHT22;65701;45.588;5.186;2023-02-11T04:13:00;-0.39;70.87
76759;DHT22;65701;45.588;5.186;2023-02-11T04:15:25;-0.42;70.82
76759;DHT22;65701;45.588;5.186;2023-02-11T04:17:51;-0.46;70.81
76759;DHT22;65701;45.588;5.186;2023-02-11T04:20:16;-0.51;70.94
76759;DHT22;65701;45.588;5.186;2023-02-11T04:22:42;-0.53;70.95
76759;DHT22;65701;45.588;5.186;2023-02-11T04:25:08;-0.58;70.91
76759;DHT22;65701;45.588;5.186;2023-02-11T04:27:34;-0.59;70.93
76759;DHT22;65701;45.588;5.186;2023-02-11T04:29:59;-0.59;70.91
76759;DHT22;65701;45.588;5.186;2023-02-11T04:32:25;-0.58;70.97
76759;DHT22;65701;45.588;5.186;2023-02-11T04:34:50;-0.61;70.94
76759;DHT22;65701;45.588;5.186;2023-02-11T04:37:16;-0.62;70.92
76759;DHT22;65701;45.588;5.186;2023-02-11T04:39:41;-0.66;71.00
76759;DHT22;65701;45.588;5.186;2023-02-11T04:42:07;-0.65;71.08
76759;DHT22;65701;45.588;5.186;2023-02-11T04:44:33;-0.69;71.08
76759;DHT22;65701;45.588;5.186;2023-02-11T04:46:58;-0.69;71.15
76759;DHT22;65701;45.588;5.186;2023-02-11T04:49:24;-0.69;71.15
76759;DHT22;65701;45.588;5.186;2023-02-11T04:51:49;-0.69;71.15
76759;DHT22;65701;45.588;5.186;2023-02-11T04:54:16;-0.66;71.13
76759;DHT22;65701;45.588;5.186;2023-02-11T04:56:41;-0.69;71.21
76759;DHT22;65701;45.588;5.186;2023-02-11T04:59:07;-0.69;71.19
76759;DHT22;65701;45.588;5.186;2023-02-11T05:01:33;-0.68;71.10
76759;DHT22;65701;45.588;5.186;2023-02-11T05:03:58;-0.66;71.13
76759;DHT22;65701;45.588;5.186;2023-02-11T05:06:24;-0.69;71.09
76759;DHT22;65701;45.588;5.186;2023-02-11T05:08:49;-0.68;71.01
76759;DHT22;65701;45.588;5.186;2023-02-11T05:11:18;-0.72;71.01
76759;DHT22;65701;45.588;5.186;2023-02-11T05:13:45;-0.72;71.00
76759;DHT22;65701;45.588;5.186;2023-02-11T05:16:11;-0.72;71.08
76759;DHT22;65701;45.588;5.186;2023-02-11T05:18:37;-0.80;71.18
76759;DHT22;65701;45.588;5.186;2023-02-11T05:21:07;-0.87;71.51
76759;DHT22;65701;45.588;5.186;2023-02-11T05:23:34;-0.89;71.50
76759;DHT22;65701;45.588;5.186;2023-02-11T05:26:00;-0.89;71.51
76759;DHT22;65701;45.588;5.186;2023-02-11T05:28:26;-0.89;71.46
76759;DHT22;65701;45.588;5.186;2023-02-11T05:30:51;-0.87;71.37
76759;DHT22;65701;45.588;5.186;2023-02-11T05:33:17;-0.89;71.29
76759;DHT22;65701;45.588;5.186;2023-02-11T05:35:42;-0.86;71.27
76759;DHT22;65701;45.588;5.186;2023-02-11T05:38:08;-0.83;71.24
76759;DHT22;65701;45.588;5.186;2023-02-11T05:40:33;-0.87;71.15
76759;DHT22;65701;45.588;5.186;2023-02-11T05:42:59;-0.83;71.09
76759;DHT22;65701;45.588;5.186;2023-02-11T05:45:24;-0.84;71.08
76759;DHT22;65701;45.588;5.186;2023-02-11T05:47:50;-0.84;71.11
76759;DHT22;65701;45.588;5.186;2023-02-11T05:50:15;-0.86;71.09
76759;DHT22;65701;45.588;5.186;2023-02-11T05:52:41;-0.84;71.08
76759;DHT22;65701;45.588;5.186;2023-02-11T05:55:06;-0.84;71.06
76759;DHT22;65701;45.588;5.186;2023-02-11T05:57:32;-0.86;71.09
76759;DHT22;65701;45.588;5.186;2023-02-11T05:59:57;-0.87;71.23
76759;DHT22;65701;45.588;5.186;2023-02-11T06:02:23;-0.87;71.23
76759;DHT22;65701;45.588;5.186;2023-02-11T06:04:48;-0.90;71.17
76759;DHT22;65701;45.588;5.186;2023-02-11T06:07:14;-0.90;71.18
76759;DHT22;65701;45.588;5.186;2023-02-11T06:09:39;-0.90;71.13
76759;DHT22;65701;45.588;5.186;2023-02-11T06:12:05;-0.86;71.13
76759;DHT22;65701;45.588;5.186;2023-02-11T06:14:34;-0.89;71.10
76759;DHT22;65701;45.588;5.186;2023-02-11T06:17:00;-0.91;71.10
76759;DHT22;65701;45.588;5.186;2023-02-11T06:19:25;-0.90;71.16
76759;DHT22;65701;45.588;5.186;2023-02-11T06:21:51;-0.94;71.18
76759;DHT22;65701;45.588;5.186;2023-02-11T06:24:16;-0.96;71.22
76759;DHT22;65701;45.588;5.186;2023-02-11T06:26:42;-1.00;71.20
76759;DHT22;65701;45.588;5.186;2023-02-11T06:29:07;-1.00;71.19
76759;DHT22;65701;45.588;5.186;2023-02-11T06:31:33;-1.04;71.24
76759;DHT22;65701;45.588;5.186;2023-02-11T06:33:58;-1.10;71.25
76759;DHT22;65701;45.588;5.186;2023-02-11T06:36:24;-1.15;71.34
76759;DHT22;65701;45.588;5.186;2023-02-11T06:38:50;-1.17;71.35
76759;DHT22;65701;45.588;5.186;2023-02-11T06:41:17;-1.17;71.34
76759;DHT22;65701;45.588;5.186;2023-02-11T06:43:44;-1.15;71.32
76759;DHT22;65701;45.588;5.186;2023-02-11T06:46:10;-1.12;71.38
76759;DHT22;65701;45.588;5.186;2023-02-11T06:48:36;-1.15;71.27
76759;DHT22;65701;45.588;5.186;2023-02-11T06:51:03;-1.17;71.22
76759;DHT22;65701;45.588;5.186;2023-02-11T06:53:30;-1.17;71.27
76759;DHT22;65701;45.588;5.186;2023-02-11T06:55:56;-1.14;71.25
76759;DHT22;65701;45.588;5.186;2023-02-11T06:58:25;-1.15;71.31
76759;DHT22;65701;45.588;5.186;2023-02-11T07:00:51;-1.15;71.43
76759;DHT22;65701;45.588;5.186;2023-02-11T07:03:16;-1.15;71.40
76759;DHT22;65701;45.588;5.186;2023-02-11T07:05:42;-1.24;71.33
76759;DHT22;65701;45.588;5.186;2023-02-11T07:08:08;-1.25;71.64
76759;DHT22;65701;45.588;5.186;2023-02-11T07:10:33;-1.22;71.65
76759;DHT22;65701;45.588;5.186;2023-02-11T07:12:59;-1.19;71.78
76759;DHT22;65701;45.588;5.186;2023-02-11T07:15:25;-1.12;71.74
76759;DHT22;65701;45.588;5.186;2023-02-11T07:17:50;-1.12;71.68
76759;DHT22;65701;45.588;5.186;2023-02-11T07:20:16;-1.08;71.68
76759;DHT22;65701;45.588;5.186;2023-02-11T07:22:41;-1.04;71.63
76759;DHT22;65701;45.588;5.186;2023-02-11T07:25:07;-1.00;71.62
76759;DHT22;65701;45.588;5.186;2023-02-11T07:27:32;-0.97;71.59
76759;DHT22;65701;45.588;5.186;2023-02-11T07:29:58;-0.91;71.57
76759;DHT22;65701;45.588;5.186;2023-02-11T07:32:23;-0.86;71.54
76759;DHT22;65701;45.588;5.186;2023-02-11T07:34:49;-0.81;71.58
76759;DHT22;65701;45.588;5.186;2023-02-11T07:37:14;-0.72;71.62
76759;DHT22;65701;45.588;5.186;2023-02-11T07:39:40;-0.62;71.67
76759;DHT22;65701;45.588;5.186;2023-02-11T07:42:05;-0.55;71.67
76759;DHT22;65701;45.588;5.186;2023-02-11T07:44:31;-0.41;71.75
76759;DHT22;65701;45.588;5.186;2023-02-11T07:46:58;-0.35;71.80
76759;DHT22;65701;45.588;5.186;2023-02-11T07:49:23;-0.22;71.93
76759;DHT22;65701;45.588;5.186;2023-02-11T07:51:49;-0.13;72.01
76759;DHT22;65701;45.588;5.186;2023-02-11T07:54:15;0.06;72.25
76759;DHT22;65701;45.588;5.186;2023-02-11T07:56:41;0.21;72.25
76759;DHT22;65701;45.588;5.186;2023-02-11T07:59:07;0.36;72.43
76759;DHT22;65701;45.588;5.186;2023-02-11T08:01:32;0.52;72.58
76759;DHT22;65701;45.588;5.186;2023-02-11T08:03:59;0.69;72.52
76759;DHT22;65701;45.588;5.186;2023-02-11T08:06:27;0.85;72.45
76759;DHT22;65701;45.588;5.186;2023-02-11T08:08:54;1.00;72.38
76759;DHT22;65701;45.588;5.186;2023-02-11T08:11:22;1.12;72.24
76759;DHT22;65701;45.588;5.186;2023-02-11T08:13:48;1.24;72.16
76759;DHT22;65701;45.588;5.186;2023-02-11T08:16:20;1.34;72.19
76759;DHT22;65701;45.588;5.186;2023-02-11T08:18:46;1.48;72.17
76759;DHT22;65701;45.588;5.186;2023-02-11T08:21:12;1.59;72.12
76759;DHT22;65701;45.588;5.186;2023-02-11T08:23:39;1.72;72.05
76759;DHT22;65701;45.588;5.186;2023-02-11T08:26:09;1.85;71.98
76759;DHT22;65701;45.588;5.186;2023-02-11T08:28:36;1.97;71.88
76759;DHT22;65701;45.588;5.186;2023-02-11T08:31:10;2.09;71.90
76759;DHT22;65701;45.588;5.186;2023-02-11T08:33:36;2.24;71.88
76759;DHT22;65701;45.588;5.186;2023-02-11T08:36:08;2.37;71.89
76759;DHT22;65701;45.588;5.186;2023-02-11T08:38:34;2.52;71.87
76759;DHT22;65701;45.588;5.186;2023-02-11T08:40:59;2.68;71.73
76759;DHT22;65701;45.588;5.186;2023-02-11T08:43:25;2.80;71.61
76759;DHT22;65701;45.588;5.186;2023-02-11T08:45:51;2.95;71.49
76759;DHT22;65701;45.588;5.186;2023-02-11T08:48:16;3.07;71.40
76759;DHT22;65701;45.588;5.186;2023-02-11T08:50:42;3.23;71.46
76759;DHT22;65701;45.588;5.186;2023-02-11T08:53:07;3.35;71.33
76759;DHT22;65701;45.588;5.186;2023-02-11T08:55:33;3.45;71.22
76759;DHT22;65701;45.588;5.186;2023-02-11T08:57:58;3.50;71.20
76759;DHT22;65701;45.588;5.186;2023-02-11T09:00:24;3.61;71.17
76759;DHT22;65701;45.588;5.186;2023-02-11T09:02:50;3.80;71.10
76759;DHT22;65701;45.588;5.186;2023-02-11T09:05:15;3.97;71.04
76759;DHT22;65701;45.588;5.186;2023-02-11T09:07:41;4.10;70.96
76759;DHT22;65701;45.588;5.186;2023-02-11T09:10:07;4.24;71.02
76759;DHT22;65701;45.588;5.186;2023-02-11T09:12:32;4.40;70.88
76759;DHT22;65701;45.588;5.186;2023-02-11T09:14:58;4.52;70.63
76759;DHT22;65701;45.588;5.186;2023-02-11T09:17:23;4.65;70.43
76759;DHT22;65701;45.588;5.186;2023-02-11T09:19:49;4.73;70.08
76759;DHT22;65701;45.588;5.186;2023-02-11T09:22:14;4.77;69.84
76759;DHT22;65701;45.588;5.186;2023-02-11T09:24:40;4.84;69.64
76759;DHT22;65701;45.588;5.186;2023-02-11T09:27:05;4.90;69.31
76759;DHT22;65701;45.588;5.186;2023-02-11T09:29:31;5.01;69.15
76759;DHT22;65701;45.588;5.186;2023-02-11T09:31:56;5.07;68.88
76759;DHT22;65701;45.588;5.186;2023-02-11T09:34:22;5.17;68.63
76759;DHT22;65701;45.588;5.186;2023-02-11T09:36:47;5.27;68.42
76759;DHT22;65701;45.588;5.186;2023-02-11T09:39:16;5.34;68.30
76759;DHT22;65701;45.588;5.186;2023-02-11T09:45:00;5.49;67.63
76759;DHT22;65701;45.588;5.186;2023-02-11T09:47:28;5.54;67.69
76759;DHT22;65701;45.588;5.186;2023-02-11T09:50:09;5.66;67.71
76759;DHT22;65701;45.588;5.186;2023-02-11T09:55:29;5.89;67.43
76759;DHT22;65701;45.588;5.186;2023-02-11T09:57:56;5.97;67.05
76759;DHT22;65701;45.588;5.186;2023-02-11T10:00:40;6.10;67.00
76759;DHT22;65701;45.588;5.186;2023-02-11T10:15:05;6.32;65.82
76759;DHT22;65701;45.588;5.186;2023-02-11T10:20:35;6.32;64.51
76759;DHT22;65701;45.588;5.186;2023-02-11T10:25:40;6.13;63.91
76759;DHT22;65701;45.588;5.186;2023-02-11T10:28:15;6.17;63.72
76759;DHT22;65701;45.588;5.186;2023-02-11T10:36:04;6.38;64.11
76759;DHT22;65701;45.588;5.186;2023-02-11T10:38:30;6.29;63.83
76759;DHT22;65701;45.588;5.186;2023-02-11T10:40:57;6.44;63.72
76759;DHT22;65701;45.588;5.186;2023-02-11T10:43:25;6.48;63.71
76759;DHT22;65701;45.588;5.186;2023-02-11T10:45:53;6.44;63.64
76759;DHT22;65701;45.588;5.186;2023-02-11T10:51:23;6.52;63.54
76759;DHT22;65701;45.588;5.186;2023-02-11T10:54:10;6.63;63.18
76759;DHT22;65701;45.588;5.186;2023-02-11T10:56:48;6.57;63.03
76759;DHT22;65701;45.588;5.186;2023-02-11T10:59:26;6.29;62.37
76759;DHT22;65701;45.588;5.186;2023-02-11T11:06:55;6.45;62.28
76759;DHT22;65701;45.588;5.186;2023-02-11T11:09:44;6.49;62.27
76759;DHT22;65701;45.588;5.186;2023-02-11T11:15:00;6.56;62.27
76759;DHT22;65701;45.588;5.186;2023-02-11T11:17:26;6.65;62.08
76759;DHT22;65701;45.588;5.186;2023-02-11T11:20:18;6.71;62.16
76759;DHT22;65701;45.588;5.186;2023-02-11T11:22:45;6.83;62.40
76759;DHT22;65701;45.588;5.186;2023-02-11T11:25:25;6.83;61.99
76759;DHT22;65701;45.588;5.186;2023-02-11T11:27:55;6.99;62.01
76759;DHT22;65701;45.588;5.186;2023-02-11T11:30:22;7.05;62.16
76759;DHT22;65701;45.588;5.186;2023-02-11T11:32:49;7.04;62.15
76759;DHT22;65701;45.588;5.186;2023-02-11T11:35:29;7.15;61.90
76759;DHT22;65701;45.588;5.186;2023-02-11T11:38:02;7.18;61.68
76759;DHT22;65701;45.588;5.186;2023-02-11T11:40:30;7.27;61.53
76759;DHT22;65701;45.588;5.186;2023-02-11T11:45:57;7.14;61.13
76759;DHT22;65701;45.588;5.186;2023-02-11T11:48:27;7.21;61.51
76759;DHT22;65701;45.588;5.186;2023-02-11T11:51:00;7.27;61.84
76759;DHT22;65701;45.588;5.186;2023-02-11T11:53:45;7.28;61.34
76759;DHT22;65701;45.588;5.186;2023-02-11T11:56:21;7.41;61.61
76759;DHT22;65701;45.588;5.186;2023-02-11T11:58:49;7.52;61.88
76759;DHT22;65701;45.588;5.186;2023-02-11T12:07:26;7.82;61.50
76759;DHT22;65701;45.588;5.186;2023-02-11T12:15:36;7.95;61.17
76759;DHT22;65701;45.588;5.186;2023-02-11T12:23:57;7.79;60.36
76759;DHT22;65701;45.588;5.186;2023-02-11T12:27:07;7.84;59.92
76759;DHT22;65701;45.588;5.186;2023-02-11T12:34:45;7.89;60.08
76759;DHT22;65701;45.588;5.186;2023-02-11T12:42:56;7.93;60.21
76759;DHT22;65701;45.588;5.186;2023-02-11T12:51:08;7.75;59.75
76759;DHT22;65701;45.588;5.186;2023-02-11T12:53:57;7.83;59.98
76759;DHT22;65701;45.588;5.186;2023-02-11T12:56:36;7.87;59.90
76759;DHT22;65701;45.588;5.186;2023-02-11T12:59:10;7.91;60.16
76759;DHT22;65701;45.588;5.186;2023-02-11T13:01:39;7.93;60.16
76759;DHT22;65701;45.588;5.186;2023-02-11T13:04:28;8.00;59.93
76759;DHT22;65701;45.588;5.186;2023-02-11T13:06:58;7.98;59.71
76759;DHT22;65701;45.588;5.186;2023-02-11T13:09:40;8.04;59.82
76759;DHT22;65701;45.588;5.186;2023-02-11T13:12:06;8.08;60.03
76759;DHT22;65701;45.588;5.186;2023-02-11T13:14:55;8.14;60.15
76759;DHT22;65701;45.588;5.186;2023-02-11T13:17:37;8.20;60.17
76759;DHT22;65701;45.588;5.186;2023-02-11T13:20:16;8.20;60.12
76759;DHT22;65701;45.588;5.186;2023-02-11T13:22:52;8.28;59.94
76759;DHT22;65701;45.588;5.186;2023-02-11T13:25:36;8.32;60.12
76759;DHT22;65701;45.588;5.186;2023-02-11T13:30:52;8.41;59.51
76759;DHT22;65701;45.588;5.186;2023-02-11T13:33:37;8.38;59.23
76759;DHT22;65701;45.588;5.186;2023-02-11T13:38:30;8.21;57.73
76759;DHT22;65701;45.588;5.186;2023-02-11T13:43:30;8.07;57.76
76759;DHT22;65701;45.588;5.186;2023-02-11T13:46:03;8.10;57.76
76759;DHT22;65701;45.588;5.186;2023-02-11T13:48:34;8.04;57.90
76759;DHT22;65701;45.588;5.186;2023-02-11T13:51:12;8.10;58.06
76759;DHT22;65701;45.588;5.186;2023-02-11T13:58:59;8.04;58.11
76759;DHT22;65701;45.588;5.186;2023-02-11T14:04:30;7.93;57.85
76759;DHT22;65701;45.588;5.186;2023-02-11T14:07:31;7.98;57.79
76759;DHT22;65701;45.588;5.186;2023-02-11T14:13:34;7.95;58.29
76759;DHT22;65701;45.588;5.186;2023-02-11T14:18:56;8.01;58.65
76759;DHT22;65701;45.588;5.186;2023-02-11T14:21:30;7.98;58.50
76759;DHT22;65701;45.588;5.186;2023-02-11T14:26:41;8.03;58.19
76759;DHT22;65701;45.588;5.186;2023-02-11T14:29:19;8.03;58.22
76759;DHT22;65701;45.588;5.186;2023-02-11T14:32:04;8.04;58.51
76759;DHT22;65701;45.588;5.186;2023-02-11T14:43:23;7.94;58.51
76759;DHT22;65701;45.588;5.186;2023-02-11T14:45:52;7.90;58.18
76759;DHT22;65701;45.588;5.186;2023-02-11T14:48:21;7.77;57.96
76759;DHT22;65701;45.588;5.186;2023-02-11T14:53:31;7.87;58.17
76759;DHT22;65701;45.588;5.186;2023-02-11T14:55:57;7.87;58.30
76759;DHT22;65701;45.588;5.186;2023-02-11T14:58:25;7.75;58.04
76759;DHT22;65701;45.588;5.186;2023-02-11T15:01:01;7.84;58.13
76759;DHT22;65701;45.588;5.186;2023-02-11T15:06:11;7.84;58.40
76759;DHT22;65701;45.588;5.186;2023-02-11T15:11:17;7.87;58.57
76759;DHT22;65701;45.588;5.186;2023-02-11T15:13:43;7.86;58.69
76759;DHT22;65701;45.588;5.186;2023-02-11T15:16:16;7.87;58.79
76759;DHT22;65701;45.588;5.186;2023-02-11T15:18:51;7.84;58.84
76759;DHT22;65701;45.588;5.186;2023-02-11T15:21:26;7.86;58.99
76759;DHT22;65701;45.588;5.186;2023-02-11T15:26:24;7.82;58.98
76759;DHT22;65701;45.588;5.186;2023-02-11T15:28:50;7.80;59.17
76759;DHT22;65701;45.588;5.186;2023-02-11T15:31:23;7.80;59.32
76759;DHT22;65701;45.588;5.186;2023-02-11T15:33:49;7.80;59.39
76759;DHT22;65701;45.588;5.186;2023-02-11T15:36:17;7.76;59.39
76759;DHT22;65701;45.588;5.186;2023-02-11T15:38:43;7.70;59.47
76759;DHT22;65701;45.588;5.186;2023-02-11T15:41:32;7.72;59.51
76759;DHT22;65701;45.588;5.186;2023-02-11T15:43:58;7.67;59.56
76759;DHT22;65701;45.588;5.186;2023-02-11T15:46:35;7.63;59.48
76759;DHT22;65701;45.588;5.186;2023-02-11T15:49:01;7.61;59.48
76759;DHT22;65701;45.588;5.186;2023-02-11T15:51:36;7.59;59.52
76759;DHT22;65701;45.588;5.186;2023-02-11T15:54:14;7.48;59.56
76759;DHT22;65701;45.588;5.186;2023-02-11T15:56:41;7.52;59.59
76759;DHT22;65701;45.588;5.186;2023-02-11T15:59:18;7.44;59.62
76759;DHT22;65701;45.588;5.186;2023-02-11T16:01:46;7.45;59.80
76759;DHT22;65701;45.588;5.186;2023-02-11T16:04:25;7.45;60.00
76759;DHT22;65701;45.588;5.186;2023-02-11T16:06:53;7.42;60.11
76759;DHT22;65701;45.588;5.186;2023-02-11T16:09:32;7.42;60.06
76759;DHT22;65701;45.588;5.186;2023-02-11T16:12:03;7.42;60.16
76759;DHT22;65701;45.588;5.186;2023-02-11T16:14:34;7.38;60.18
76759;DHT22;65701;45.588;5.186;2023-02-11T16:17:12;7.35;60.30
76759;DHT22;65701;45.588;5.186;2023-02-11T16:19:46;7.34;60.36
76759;DHT22;65701;45.588;5.186;2023-02-11T16:22:18;7.28;60.33
76759;DHT22;65701;45.588;5.186;2023-02-11T16:24:46;7.28;60.39
76759;DHT22;65701;45.588;5.186;2023-02-11T16:30:01;7.22;60.44
76759;DHT22;65701;45.588;5.186;2023-02-11T16:32:28;7.24;60.49
76759;DHT22;65701;45.588;5.186;2023-02-11T16:34:56;7.22;60.58
76759;DHT22;65701;45.588;5.186;2023-02-11T16:37:22;7.22;60.56
76759;DHT22;65701;45.588;5.186;2023-02-11T16:39:49;7.21;60.59
76759;DHT22;65701;45.588;5.186;2023-02-11T16:42:17;7.20;60.63
76759;DHT22;65701;45.588;5.186;2023-02-11T16:44:42;7.17;60.67
76759;DHT22;65701;45.588;5.186;2023-02-11T16:47:22;7.18;60.73
76759;DHT22;65701;45.588;5.186;2023-02-11T16:49:48;7.17;60.79
76759;DHT22;65701;45.588;5.186;2023-02-11T16:52:15;7.11;60.81
76759;DHT22;65701;45.588;5.186;2023-02-11T16:54:42;7.05;60.89
76759;DHT22;65701;45.588;5.186;2023-02-11T16:57:16;6.96;60.90
76759;DHT22;65701;45.588;5.186;2023-02-11T16:59:42;6.89;60.98
76759;DHT22;65701;45.588;5.186;2023-02-11T17:02:29;6.76;61.04
76759;DHT22;65701;45.588;5.186;2023-02-11T17:04:58;6.65;61.06
76759;DHT22;65701;45.588;5.186;2023-02-11T17:07:23;6.55;61.14
76759;DHT22;65701;45.588;5.186;2023-02-11T17:09:49;6.45;61.21
76759;DHT22;65701;45.588;5.186;2023-02-11T17:12:17;6.37;61.22
76759;DHT22;65701;45.588;5.186;2023-02-11T17:14:43;6.24;61.21
76759;DHT22;65701;45.588;5.186;2023-02-11T17:17:09;6.14;61.36
76759;DHT22;65701;45.588;5.186;2023-02-11T17:19:35;5.99;61.39
76759;DHT22;65701;45.588;5.186;2023-02-11T17:22:01;5.86;61.51
76759;DHT22;65701;45.588;5.186;2023-02-11T17:24:27;5.72;61.60
76759;DHT22;65701;45.588;5.186;2023-02-11T17:26:52;5.65;61.74
76759;DHT22;65701;45.588;5.186;2023-02-11T17:29:22;5.52;61.89
76759;DHT22;65701;45.588;5.186;2023-02-11T17:31:48;5.45;61.94
76759;DHT22;65701;45.588;5.186;2023-02-11T17:34:16;5.35;62.10
76759;DHT22;65701;45.588;5.186;2023-02-11T17:36:42;5.28;62.21
76759;DHT22;65701;45.588;5.186;2023-02-11T17:39:07;5.18;62.35
76759;DHT22;65701;45.588;5.186;2023-02-11T17:41:33;5.13;62.48
76759;DHT22;65701;45.588;5.186;2023-02-11T17:44:00;5.04;62.62
76759;DHT22;65701;45.588;5.186;2023-02-11T17:46:26;4.97;62.77
76759;DHT22;65701;45.588;5.186;2023-02-11T17:48:56;4.87;62.78
76759;DHT22;65701;45.588;5.186;2023-02-11T17:51:28;4.83;62.95
76759;DHT22;65701;45.588;5.186;2023-02-11T17:53:59;4.76;63.03
76759;DHT22;65701;45.588;5.186;2023-02-11T17:56:25;4.68;63.15
76759;DHT22;65701;45.588;5.186;2023-02-11T17:58:51;4.59;63.23
76759;DHT22;65701;45.588;5.186;2023-02-11T18:01:17;4.52;63.38
76759;DHT22;65701;45.588;5.186;2023-02-11T18:03:43;4.48;63.39
76759;DHT22;65701;45.588;5.186;2023-02-11T18:06:10;4.38;63.49
76759;DHT22;65701;45.588;5.186;2023-02-11T18:08:35;4.33;63.58
76759;DHT22;65701;45.588;5.186;2023-02-11T18:11:01;4.24;63.69
76759;DHT22;65701;45.588;5.186;2023-02-11T18:13:27;4.21;63.77
76759;DHT22;65701;45.588;5.186;2023-02-11T18:15:53;4.13;63.96
76759;DHT22;65701;45.588;5.186;2023-02-11T18:18:19;4.06;64.11
76759;DHT22;65701;45.588;5.186;2023-02-11T18:20:54;3.96;64.19
76759;DHT22;65701;45.588;5.186;2023-02-11T18:23:20;3.93;64.30